Accueil
METAR-TAF:

METAR-TAF

Aéroports :

Aéroport international Roman-Tmetuchl

Koror, Babeldaob, Palaos

latitude: 07-22N, longitude: 134-32E, altitude: 54 m

Observation

Le bulletin a été fait il y a 47 minutes, à 14:50 UTC
Vent 4 kt de nord-est
Température 25°C
Humidité 94%
Pression 1011 hPa
Visibilité: 24.1 km
Nuages épars à une hauteur de 1600 ft
Nuages fragmentés à une hauteur de 30000 ft

METAR: PTRO 211450Z 05004KT 15SM SCT016 BKN300 25/24 A2984

Heure: 00:37 (15:37 UTC)

Prévision

Le bulletin a été fait il y a 4 heures et 17 minutes, à 11:20 UTC
Prévision valable du 21 à 12 UTC au 22 à 12 UTC
Vent 11 kt de est/nord-est
Visibilité: 10 km
Nuages épars à une hauteur de 1600 ft
Nuages épars à une hauteur de 11000 ft
averses à proximité

TAF: PTRO 211120Z 2112/2212 06011KT P6SM VCSH SCT016 SCT110

Observations et prévisions météorologiques de plus de 4000 aéroports (messages METAR et TAF).

Les stations disponibles sont représentées par des disques jaunes et rouges sur la carte.

Passer la souris dessus pour voir le nom de la station.

Cliquer dessus pour voir les observations et prévisions météorologiques.

Pour changer de carte: cliquez sur les boutons verts avec une croix noire pour zoomer, sur le bouton vert avec un tiret pour effectuer un zoom arrière, ou sur les flèches vertes pour les cartes adjacentes.


METAR-TAF: